createdAt,value
2022-11-21T00:00:53.004Z,13.03
2022-11-21T00:03:19.976Z,11.40
2022-11-21T00:05:48.962Z,15.20
2022-11-21T00:08:18.545Z,11.97
2022-11-21T00:10:45.795Z,10.53
2022-11-21T00:13:14.711Z,9.93
2022-11-21T00:15:41.351Z,10.97
2022-11-21T00:18:08.362Z,9.77
2022-11-21T00:20:37.070Z,9.20
2022-11-21T00:23:04.389Z,11.13
2022-11-21T00:25:31.525Z,8.70
2022-11-21T00:27:58.141Z,8.07
2022-11-21T00:30:25.452Z,9.53
2022-11-21T00:32:52.496Z,10.80
2022-11-21T00:35:19.531Z,10.07
2022-11-21T00:37:48.517Z,9.63
2022-11-21T00:40:15.417Z,9.50
2022-11-21T00:42:42.401Z,9.57
2022-11-21T00:45:09.605Z,8.73
2022-11-21T00:47:36.600Z,8.90
2022-11-21T00:50:03.580Z,9.23
2022-11-21T00:52:30.148Z,11.03
2022-11-21T00:54:57.424Z,10.60
2022-11-21T00:57:24.428Z,10.53
2022-11-21T00:59:51.444Z,9.53
2022-11-21T01:02:18.460Z,9.40
2022-11-21T01:04:45.101Z,10.03
2022-11-21T01:07:14.287Z,9.90
2022-11-21T01:09:41.340Z,9.07
2022-11-21T01:12:08.171Z,11.30
2022-11-21T01:14:35.220Z,9.73
2022-11-21T01:17:02.231Z,9.30
2022-11-21T01:19:29.366Z,9.47
2022-11-21T01:21:56.364Z,8.53
2022-11-21T01:24:22.943Z,9.47
2022-11-21T01:26:50.886Z,8.00
2022-11-21T01:29:18.492Z,7.70
2022-11-21T01:31:45.548Z,8.53
2022-11-21T01:34:14.830Z,6.27
2022-11-21T01:36:41.879Z,7.83
2022-11-21T01:39:09.167Z,8.70
2022-11-21T01:41:44.502Z,9.43
2022-11-21T01:44:19.182Z,9.60
2022-11-21T01:46:46.336Z,9.97
2022-11-21T01:49:21.877Z,9.17
2022-11-21T01:52:02.164Z,6.90
2022-11-21T01:54:46.835Z,6.93
2022-11-21T01:57:48.499Z,8.33
2022-11-21T02:00:23.785Z,10.30
2022-11-21T02:02:56.066Z,8.77
2022-11-21T02:05:26.197Z,7.37
2022-11-21T02:07:57.207Z,10.27
2022-11-21T02:10:24.293Z,9.40
2022-11-21T02:12:53.404Z,10.20
2022-11-21T02:15:23.090Z,11.23
2022-11-21T02:17:50.088Z,10.23
2022-11-21T02:20:19.519Z,9.60
2022-11-21T02:23:07.938Z,10.47
2022-11-21T02:25:37.126Z,10.33
2022-11-21T02:28:06.957Z,7.30
2022-11-21T02:30:37.763Z,9.83
2022-11-21T02:33:04.834Z,11.13
2022-11-21T02:35:31.843Z,8.83
2022-11-21T02:38:02.001Z,9.27
2022-11-21T02:40:34.363Z,9.97
2022-11-21T02:43:01.328Z,8.13
2022-11-21T02:45:36.569Z,12.13
2022-11-21T02:48:04.403Z,8.93
2022-11-21T02:50:34.059Z,10.37
2022-11-21T02:53:01.295Z,7.53
2022-11-21T02:55:27.884Z,10.37
2022-11-21T02:57:54.871Z,9.07
2022-11-21T03:00:21.830Z,10.77
2022-11-21T03:02:48.764Z,9.67
2022-11-21T03:05:17.957Z,8.60
2022-11-21T03:07:45.840Z,9.80
2022-11-21T03:10:13.109Z,8.27
2022-11-21T03:12:41.078Z,10.47
2022-11-21T03:15:10.479Z,10.03
2022-11-21T03:17:37.522Z,7.77
2022-11-21T03:20:05.076Z,11.00
2022-11-21T03:22:32.078Z,10.53
2022-11-21T03:24:59.067Z,12.50
2022-11-21T03:27:26.085Z,10.93
2022-11-21T03:29:53.090Z,11.57
2022-11-21T03:32:20.089Z,13.70
2022-11-21T03:34:46.671Z,17.07
2022-11-21T03:37:13.658Z,13.90
2022-11-21T03:39:40.240Z,13.43
2022-11-21T03:42:07.217Z,15.73
2022-11-21T03:44:34.203Z,12.27
2022-11-21T03:47:01.190Z,14.27
2022-11-21T03:49:27.761Z,15.53
2022-11-21T03:51:54.774Z,18.50
2022-11-21T03:54:21.802Z,16.57
2022-11-21T03:56:48.792Z,18.73
2022-11-21T03:59:15.388Z,16.57
2022-11-21T04:01:42.491Z,13.77
2022-11-21T04:04:09.545Z,16.33
2022-11-21T04:06:36.559Z,17.30
2022-11-21T04:09:03.597Z,19.97
2022-11-21T04:11:30.626Z,15.77
2022-11-21T04:13:57.661Z,15.00
2022-11-21T04:16:24.640Z,17.93
2022-11-21T04:18:51.267Z,16.97
2022-11-21T04:21:18.367Z,18.50
2022-11-21T04:23:45.360Z,19.40
2022-11-21T04:26:12.384Z,18.43
2022-11-21T04:28:38.981Z,17.17
2022-11-21T04:31:10.917Z,15.97
2022-11-21T04:33:39.359Z,18.37
2022-11-21T04:36:07.773Z,19.43
2022-11-21T04:38:34.759Z,17.57
2022-11-21T04:41:01.765Z,18.60
2022-11-21T04:43:29.035Z,20.43
2022-11-21T04:45:56.095Z,14.30
2022-11-21T04:48:23.155Z,18.57
2022-11-21T04:50:50.305Z,18.97
2022-11-21T04:53:17.040Z,18.67
2022-11-21T04:55:44.046Z,21.60
2022-11-21T04:58:11.051Z,20.30
2022-11-21T05:00:38.062Z,18.20
2022-11-21T05:03:06.004Z,20.13
2022-11-21T05:05:33.012Z,19.93
2022-11-21T05:08:00.016Z,19.80
2022-11-21T05:10:27.016Z,23.80
2022-11-21T05:13:16.421Z,22.10
2022-11-21T05:15:43.052Z,19.67
2022-11-21T05:18:10.030Z,20.07
2022-11-21T05:20:37.182Z,23.17
2022-11-21T05:23:04.128Z,18.33
2022-11-21T05:25:31.165Z,19.17
2022-11-21T05:27:58.248Z,21.23
2022-11-21T05:30:25.272Z,18.43
2022-11-21T05:32:51.891Z,23.03
2022-11-21T05:35:18.487Z,21.63
2022-11-21T05:37:45.467Z,19.93
2022-11-21T05:40:12.341Z,18.47
2022-11-21T05:43:00.377Z,21.90
2022-11-21T05:45:27.420Z,25.07
2022-11-21T05:47:54.432Z,22.33
2022-11-21T05:50:21.436Z,19.00
2022-11-21T05:52:47.970Z,24.60
2022-11-21T05:55:15.076Z,20.87
2022-11-21T05:57:42.103Z,24.83
2022-11-21T06:00:09.468Z,22.97
2022-11-21T06:02:55.199Z,31.63
2022-11-21T06:05:22.233Z,30.93
2022-11-21T06:07:49.174Z,26.90
2022-11-21T06:10:16.158Z,30.67
2022-11-21T06:12:42.749Z,30.10
2022-11-21T06:15:09.957Z,29.63
2022-11-21T06:17:36.952Z,28.90
2022-11-21T06:20:03.844Z,26.73
2022-11-21T06:22:30.394Z,20.27
2022-11-21T06:24:57.363Z,22.67
2022-11-21T06:27:24.354Z,22.30
2022-11-21T06:29:51.337Z,23.90
2022-11-21T06:32:18.405Z,19.50
2022-11-21T06:34:45.458Z,21.23
2022-11-21T06:37:12.447Z,26.33
2022-11-21T06:39:39.563Z,25.27
2022-11-21T06:42:06.885Z,34.87
2022-11-21T06:44:33.655Z,29.67
2022-11-21T06:47:00.801Z,23.33
2022-11-21T06:49:27.963Z,20.10
2022-11-21T06:51:55.041Z,27.17
2022-11-21T06:54:22.073Z,26.00
2022-11-21T06:56:52.357Z,26.60
2022-11-21T06:59:19.334Z,21.70
2022-11-21T07:01:46.037Z,36.20
2022-11-21T07:04:13.123Z,30.73
2022-11-21T07:06:39.672Z,31.33
2022-11-21T07:11:53.641Z,24.87
2022-11-21T07:14:20.299Z,27.80
2022-11-21T07:16:47.346Z,23.03
2022-11-21T07:19:14.327Z,22.17
2022-11-21T07:21:42.977Z,26.70
2022-11-21T07:24:10.084Z,26.00
2022-11-21T07:26:37.054Z,26.33
2022-11-21T07:29:04.131Z,27.20
2022-11-21T07:31:30.728Z,25.07
2022-11-21T07:33:57.708Z,23.43
2022-11-21T07:36:24.704Z,25.10
2022-11-21T07:38:51.269Z,23.90
2022-11-21T07:41:18.329Z,25.33
2022-11-21T07:43:45.324Z,25.43
2022-11-21T07:46:12.335Z,25.97
2022-11-21T07:48:39.335Z,25.53
2022-11-21T07:51:06.557Z,25.50
2022-11-21T07:53:33.650Z,26.23
2022-11-21T07:56:00.747Z,28.57
2022-11-21T07:58:27.953Z,21.10
2022-11-21T08:00:54.968Z,27.10
2022-11-21T08:03:22.556Z,26.60
2022-11-21T08:05:49.864Z,27.20
2022-11-21T08:08:16.919Z,30.17
2022-11-21T08:10:46.868Z,29.13
2022-11-21T08:13:13.902Z,28.67
2022-11-21T08:15:40.936Z,29.37
2022-11-21T08:18:12.721Z,25.70
2022-11-21T08:20:39.529Z,28.47
2022-11-21T08:23:06.927Z,24.57
2022-11-21T08:25:36.434Z,27.83
2022-11-21T08:28:03.555Z,28.30
2022-11-21T08:30:31.160Z,31.83
2022-11-21T08:32:58.780Z,27.87
2022-11-21T08:35:26.389Z,30.53
2022-11-21T08:38:00.441Z,34.33
2022-11-21T08:40:28.827Z,32.67
2022-11-21T08:43:01.151Z,32.03
2022-11-21T08:45:28.377Z,25.90
2022-11-21T08:47:55.573Z,25.53
2022-11-21T08:50:23.107Z,33.63
2022-11-21T08:52:50.195Z,33.33
2022-11-21T08:55:17.269Z,25.30
2022-11-21T08:57:43.934Z,27.97
2022-11-21T09:00:12.606Z,26.43
2022-11-21T09:02:39.636Z,27.23
2022-11-21T09:05:06.872Z,25.33
2022-11-21T09:07:33.576Z,24.17
2022-11-21T09:10:00.677Z,24.50
2022-11-21T09:12:27.700Z,25.17
2022-11-21T09:15:13.269Z,24.20
2022-11-21T09:17:58.749Z,30.10
2022-11-21T09:20:25.507Z,25.30
2022-11-21T09:22:53.051Z,29.07
2022-11-21T09:25:19.627Z,26.07
2022-11-21T09:27:47.053Z,20.13
2022-11-21T09:30:14.292Z,28.33
2022-11-21T09:32:41.434Z,26.70
2022-11-21T09:35:08.798Z,27.73
2022-11-21T09:37:38.516Z,26.43
2022-11-21T09:40:08.701Z,25.27
2022-11-21T09:43:00.625Z,27.87
2022-11-21T09:45:37.251Z,25.60
2022-11-21T09:48:11.135Z,25.20
2022-11-21T09:50:54.393Z,25.17
2022-11-21T09:53:25.782Z,27.43
2022-11-21T09:55:59.976Z,27.07
2022-11-21T09:58:48.524Z,29.07
2022-11-21T10:01:16.641Z,22.10
2022-11-21T10:03:52.224Z,30.83
2022-11-21T10:06:20.484Z,27.73
2022-11-21T10:09:12.896Z,24.33
2022-11-21T10:12:12.851Z,23.97
2022-11-21T10:15:09.625Z,25.20
2022-11-21T10:18:24.544Z,25.57
2022-11-21T10:21:24.194Z,27.97
2022-11-21T10:24:39.725Z,26.07
2022-11-21T10:27:18.323Z,26.33
2022-11-21T10:29:45.337Z,25.73
2022-11-21T10:32:18.532Z,29.63
2022-11-21T10:34:46.595Z,26.67
2022-11-21T10:37:52.005Z,28.10
2022-11-21T10:40:36.957Z,27.77
2022-11-21T10:43:36.869Z,23.20
2022-11-21T10:46:03.519Z,25.27
2022-11-21T10:48:30.143Z,21.97
2022-11-21T10:51:17.111Z,20.97
2022-11-21T10:54:07.618Z,28.40
2022-11-21T10:56:36.060Z,22.27
2022-11-21T10:59:13.821Z,19.97
2022-11-21T11:01:40.866Z,23.33
2022-11-21T11:06:59.725Z,18.43
2022-11-21T11:09:28.149Z,18.23
2022-11-21T11:12:23.924Z,20.10
2022-11-21T11:14:55.688Z,21.47
2022-11-21T11:17:31.318Z,17.50
2022-11-21T11:20:26.606Z,17.87
2022-11-21T11:22:53.180Z,16.50
2022-11-21T11:25:20.182Z,19.10
2022-11-21T11:27:47.158Z,16.13
2022-11-21T11:30:17.418Z,16.83
2022-11-21T11:32:44.416Z,15.07
2022-11-21T11:35:13.857Z,13.97
2022-11-21T11:37:42.599Z,14.37
2022-11-21T11:40:50.889Z,14.07
2022-11-21T11:43:58.387Z,18.33
2022-11-21T11:47:05.518Z,14.53
2022-11-21T11:50:04.736Z,10.40
2022-11-21T11:52:51.591Z,10.57
2022-11-21T11:55:36.519Z,12.03
2022-11-21T11:58:18.543Z,10.17
2022-11-21T12:00:59.997Z,10.03
2022-11-21T12:03:58.872Z,9.60
2022-11-21T12:07:41.171Z,10.30
2022-11-21T12:09:49.364Z,9.63
2022-11-21T12:12:39.226Z,12.23
2022-11-21T12:15:43.458Z,7.93
2022-11-21T12:18:16.264Z,10.10
2022-11-21T12:21:15.232Z,10.00
2022-11-21T12:23:58.804Z,9.10
2022-11-21T12:26:35.695Z,8.70
2022-11-21T12:29:21.227Z,10.47
2022-11-21T12:32:00.159Z,10.30
2022-11-21T12:35:04.462Z,8.67
2022-11-21T12:38:11.141Z,9.13
2022-11-21T12:40:52.182Z,16.43
2022-11-21T12:43:39.712Z,10.13
2022-11-21T12:46:27.961Z,9.33
2022-11-21T12:49:37.057Z,8.90
2022-11-21T12:52:40.183Z,9.20
2022-11-21T12:55:13.315Z,9.00
2022-11-21T12:57:54.844Z,9.93
2022-11-21T13:00:47.058Z,10.27
2022-11-21T13:03:45.511Z,8.60
2022-11-21T13:06:21.208Z,9.13
2022-11-21T13:08:51.509Z,9.97
2022-11-21T13:11:55.919Z,10.13
2022-11-21T13:14:37.690Z,10.97
2022-11-21T13:17:35.756Z,10.87
2022-11-21T13:20:13.700Z,10.00
2022-11-21T13:22:40.452Z,10.03
2022-11-21T13:25:30.113Z,8.73
2022-11-21T13:28:17.350Z,12.20
2022-11-21T13:30:57.376Z,12.03
2022-11-21T13:33:37.043Z,11.00
2022-11-21T13:36:06.243Z,13.13
2022-11-21T13:38:52.831Z,14.00
2022-11-21T13:41:53.352Z,13.33
2022-11-21T13:44:49.902Z,13.73
2022-11-21T13:47:25.834Z,17.23
2022-11-21T13:50:07.879Z,13.47
2022-11-21T13:52:56.007Z,16.77
2022-11-21T13:55:59.515Z,14.23
2022-11-21T13:58:53.327Z,14.27
2022-11-21T14:01:50.888Z,14.43
2022-11-21T14:04:18.015Z,14.90
2022-11-21T14:06:44.798Z,14.27
2022-11-21T14:09:22.520Z,16.73
2022-11-21T14:11:51.111Z,17.00
2022-11-21T14:14:50.584Z,16.87
2022-11-21T14:17:56.510Z,18.83
2022-11-21T14:20:34.289Z,16.03
2022-11-21T14:23:17.379Z,17.30
2022-11-21T14:26:05.834Z,18.23
2022-11-21T14:28:34.925Z,17.13
2022-11-21T14:31:04.728Z,19.27
2022-11-21T14:33:34.600Z,17.73
2022-11-21T14:36:09.864Z,17.67
2022-11-21T14:38:43.793Z,16.13
2022-11-21T14:41:29.233Z,13.77
2022-11-21T14:43:58.531Z,19.57
2022-11-21T14:46:36.975Z,19.00
2022-11-21T14:49:30.213Z,16.00
2022-11-21T14:52:11.969Z,18.73
2022-11-21T14:55:28.054Z,13.10
2022-11-21T14:57:44.932Z,15.57
2022-11-21T15:00:36.025Z,14.13
2022-11-21T15:03:03.248Z,16.50
2022-11-21T15:06:02.198Z,15.57
2022-11-21T15:08:55.792Z,16.03
2022-11-21T15:11:13.359Z,17.27
2022-11-21T15:14:06.589Z,16.20
2022-11-21T15:16:27.972Z,12.10
2022-11-21T15:18:55.359Z,14.37
2022-11-21T15:21:22.429Z,11.80
2022-11-21T15:23:49.240Z,13.13
2022-11-21T15:26:33.807Z,11.03
2022-11-21T15:29:01.441Z,12.40
2022-11-21T15:31:28.804Z,13.23
2022-11-21T15:34:34.385Z,11.60
2022-11-21T15:37:12.127Z,11.87
2022-11-21T15:42:35.141Z,13.70
2022-11-21T15:45:19.832Z,13.17
2022-11-21T15:47:47.379Z,11.00
2022-11-21T15:50:14.967Z,9.67
2022-11-21T15:52:50.637Z,11.90
2022-11-21T15:55:29.231Z,11.07
2022-11-21T15:57:10.578Z,10.87
2022-11-21T15:57:56.473Z,9.87
2022-11-21T16:00:23.570Z,10.73
2022-11-21T16:02:50.366Z,10.07
2022-11-21T16:05:17.554Z,10.40
2022-11-21T16:07:44.260Z,10.73
2022-11-21T16:10:18.412Z,12.00
2022-11-21T16:12:48.333Z,15.63
2022-11-21T16:15:15.252Z,11.43
2022-11-21T16:17:42.356Z,10.63
2022-11-21T16:20:09.527Z,12.23
2022-11-21T16:22:36.567Z,10.67
2022-11-21T16:25:03.647Z,12.00
2022-11-21T16:27:32.369Z,11.77
2022-11-21T16:29:59.531Z,10.43
2022-11-21T16:32:26.904Z,8.37
2022-11-21T16:34:54.778Z,7.90
2022-11-21T16:37:21.613Z,12.03
2022-11-21T16:39:52.100Z,9.40
2022-11-21T16:42:19.649Z,10.23
2022-11-21T16:44:48.175Z,11.10
2022-11-21T16:47:15.389Z,14.17
2022-11-21T16:49:48.341Z,11.20
2022-11-21T16:52:16.049Z,9.83
2022-11-21T16:54:43.103Z,12.33
2022-11-21T16:57:09.846Z,10.30
2022-11-21T16:59:36.889Z,8.87
2022-11-21T17:02:03.968Z,10.53
2022-11-21T17:04:32.034Z,10.43
2022-11-21T17:07:00.828Z,7.90
2022-11-21T17:09:27.554Z,10.23
2022-11-21T17:11:57.551Z,10.30
2022-11-21T17:14:24.637Z,12.07
2022-11-21T17:16:51.288Z,10.30
2022-11-21T17:19:17.858Z,9.97
2022-11-21T17:21:44.434Z,12.13
2022-11-21T17:24:13.458Z,11.57
2022-11-21T17:26:40.533Z,10.70
2022-11-21T17:29:07.620Z,10.43
2022-11-21T17:31:34.760Z,10.60
2022-11-21T17:34:02.037Z,12.33
2022-11-21T17:36:30.120Z,12.50
2022-11-21T17:38:57.411Z,10.30
2022-11-21T17:41:25.172Z,9.67
2022-11-21T17:43:58.815Z,8.40
2022-11-21T17:46:26.444Z,11.27
2022-11-21T17:48:57.098Z,10.53
2022-11-21T17:51:29.778Z,13.00
2022-11-21T17:53:56.970Z,11.10
2022-11-21T17:56:25.831Z,9.03
2022-11-21T17:58:52.553Z,10.70
2022-11-21T18:01:20.437Z,9.53
2022-11-21T18:04:01.522Z,11.43
2022-11-21T18:06:37.049Z,11.33
2022-11-21T18:09:05.817Z,8.90
2022-11-21T18:11:40.046Z,9.07
2022-11-21T18:14:08.923Z,10.23
2022-11-21T18:16:35.800Z,9.37
2022-11-21T18:19:02.784Z,9.73
2022-11-21T18:21:35.341Z,8.47
2022-11-21T18:24:02.193Z,9.53
2022-11-21T18:26:31.773Z,11.27
2022-11-21T18:29:34.497Z,8.40
2022-11-21T18:31:47.470Z,8.53
2022-11-21T18:34:14.203Z,11.57
2022-11-21T18:36:41.245Z,12.07
2022-11-21T18:39:14.253Z,11.03
2022-11-21T18:41:42.042Z,9.47
2022-11-21T18:44:09.781Z,8.73
2022-11-21T18:46:37.353Z,10.33
2022-11-21T18:49:07.425Z,9.63
2022-11-21T18:51:35.585Z,10.53
2022-11-21T18:54:07.024Z,13.23
2022-11-21T18:56:34.224Z,11.13
2022-11-21T18:59:04.259Z,11.07
2022-11-21T19:01:32.834Z,11.80
2022-11-21T19:04:00.144Z,11.77
2022-11-21T19:06:27.723Z,12.77
2022-11-21T19:08:55.828Z,10.87
2022-11-21T19:11:25.217Z,11.83
2022-11-21T19:13:53.678Z,10.33
2022-11-21T19:16:24.513Z,9.90
2022-11-21T19:19:18.615Z,12.77
2022-11-21T19:21:39.741Z,12.90
2022-11-21T19:24:07.591Z,11.43
2022-11-21T19:26:34.635Z,11.80
2022-11-21T19:29:01.996Z,11.40
2022-11-21T19:31:28.680Z,12.50
2022-11-21T19:33:55.761Z,15.87
2022-11-21T19:36:23.950Z,12.83
2022-11-21T19:38:51.811Z,12.13
2022-11-21T19:41:25.279Z,11.43
2022-11-21T19:43:54.414Z,10.33
2022-11-21T19:46:26.532Z,9.37
2022-11-21T19:48:55.615Z,13.47
2022-11-21T19:51:25.367Z,11.00
2022-11-21T19:53:52.248Z,10.90
2022-11-21T19:56:23.760Z,11.83
2022-11-21T19:58:51.139Z,11.13
2022-11-21T20:01:20.266Z,13.23
2022-11-21T20:03:49.866Z,16.07
2022-11-21T20:06:22.902Z,11.87
2022-11-21T20:09:07.285Z,11.13
2022-11-21T20:11:34.457Z,11.77
2022-11-21T20:14:01.433Z,10.07
2022-11-21T20:16:31.189Z,11.77
2022-11-21T20:19:01.002Z,8.97
2022-11-21T20:21:28.411Z,12.87
2022-11-21T20:23:55.543Z,8.73
2022-11-21T20:26:22.957Z,9.67
2022-11-21T20:28:51.045Z,7.60
2022-11-21T20:31:24.795Z,9.27
2022-11-21T20:33:54.350Z,10.77
2022-11-21T20:36:23.427Z,12.17
2022-11-21T20:38:51.205Z,11.73
2022-11-21T20:41:18.994Z,8.57
2022-11-21T20:44:41.705Z,8.40
2022-11-21T20:46:34.504Z,9.70
2022-11-21T20:49:01.631Z,9.90
2022-11-21T20:52:56.056Z,8.97
2022-11-21T20:54:15.172Z,9.83
2022-11-21T20:56:44.404Z,10.87
2022-11-21T20:59:11.732Z,12.53
2022-11-21T21:01:38.832Z,9.20
2022-11-21T21:04:06.008Z,14.60
2022-11-21T21:06:33.198Z,10.80
2022-11-21T21:09:00.320Z,10.97
2022-11-21T21:14:13.889Z,13.70
2022-11-21T21:16:40.635Z,10.70
2022-11-21T21:19:07.244Z,10.63
2022-11-21T21:21:34.583Z,10.07
2022-11-21T21:24:03.348Z,8.53
2022-11-21T21:26:40.432Z,11.57
2022-11-21T21:29:11.183Z,10.20
2022-11-21T21:31:38.309Z,8.83
2022-11-21T21:34:05.126Z,12.33
2022-11-21T21:36:32.484Z,11.90
2022-11-21T21:39:00.257Z,8.63
2022-11-21T21:41:28.860Z,9.23
2022-11-21T21:43:57.270Z,12.17
2022-11-21T21:46:25.894Z,10.43
2022-11-21T21:48:57.263Z,8.53
2022-11-21T21:51:26.741Z,8.90
2022-11-21T21:53:54.935Z,8.67
2022-11-21T21:56:22.747Z,8.33
2022-11-21T21:58:50.105Z,8.77
2022-11-21T22:01:17.128Z,9.77
2022-11-21T22:03:45.173Z,10.33
2022-11-21T22:06:14.300Z,11.07
2022-11-21T22:08:41.646Z,8.17
2022-11-21T22:11:10.678Z,7.37
2022-11-21T22:13:38.655Z,7.60
2022-11-21T22:16:06.690Z,8.30
2022-11-21T22:18:33.901Z,8.80
2022-11-21T22:21:01.089Z,7.47
2022-11-21T22:23:30.482Z,8.03
2022-11-21T22:25:58.024Z,8.00
2022-11-21T22:28:25.120Z,7.43
2022-11-21T22:30:58.923Z,10.07
2022-11-21T22:33:26.813Z,5.77
2022-11-21T22:36:02.438Z,7.90
2022-11-21T22:38:29.217Z,6.70
2022-11-21T22:41:08.012Z,11.33
2022-11-21T22:43:35.302Z,11.50
2022-11-21T22:46:03.117Z,6.80
2022-11-21T22:48:30.394Z,8.27
2022-11-21T22:50:57.385Z,12.80
2022-11-21T22:53:25.021Z,8.43
2022-11-21T22:56:05.138Z,7.17
2022-11-21T22:58:37.063Z,9.77
2022-11-21T23:01:12.325Z,7.53
2022-11-21T23:03:39.622Z,8.73
2022-11-21T23:06:09.930Z,12.77
2022-11-21T23:08:37.352Z,9.37
2022-11-21T23:11:06.584Z,8.57
2022-11-21T23:13:33.953Z,6.83
2022-11-21T23:16:01.284Z,7.93
2022-11-21T23:18:27.832Z,6.83
2022-11-21T23:20:54.631Z,7.23
2022-11-21T23:23:21.841Z,10.03
2022-11-21T23:25:48.421Z,8.93
2022-11-21T23:28:15.015Z,7.10
2022-11-21T23:30:44.423Z,7.33
2022-11-21T23:33:11.421Z,10.40
2022-11-21T23:35:38.339Z,7.67
2022-11-21T23:38:05.019Z,7.27
2022-11-21T23:40:32.062Z,5.57
2022-11-21T23:42:58.627Z,9.07
2022-11-21T23:45:25.908Z,6.37
2022-11-21T23:47:52.897Z,7.40
2022-11-21T23:50:21.121Z,6.43
2022-11-21T23:52:48.573Z,6.00
2022-11-21T23:55:16.240Z,7.17
2022-11-21T23:57:46.832Z,6.27
